createdAt,value
2018-06-12T00:02:04.350Z,14.90
2018-06-12T00:04:33.115Z,14.90
2018-06-12T00:07:02.311Z,14.90
2018-06-12T00:09:30.562Z,14.90
2018-06-12T00:11:59.138Z,14.80
2018-06-12T00:14:28.991Z,14.80
2018-06-12T00:16:58.854Z,14.90
2018-06-12T00:19:27.231Z,14.80
2018-06-12T00:21:56.219Z,14.80
2018-06-12T00:24:25.161Z,14.90
2018-06-12T00:26:53.608Z,14.90
2018-06-12T00:29:23.218Z,14.90
2018-06-12T00:31:52.066Z,14.80
2018-06-12T00:34:20.231Z,14.80
2018-06-12T00:36:49.273Z,14.80
2018-06-12T00:39:18.082Z,14.80
2018-06-12T00:41:47.159Z,14.80
2018-06-12T00:44:15.641Z,14.70
2018-06-12T00:49:12.276Z,14.70
2018-06-12T00:51:41.018Z,14.70
2018-06-12T00:54:09.633Z,14.70
2018-06-12T00:56:49.376Z,14.70
2018-06-12T00:59:18.159Z,14.70
2018-06-12T01:01:46.926Z,14.70
2018-06-12T01:04:16.288Z,14.70
2018-06-12T01:06:45.248Z,14.60
2018-06-12T01:09:13.914Z,14.60
2018-06-12T01:11:42.792Z,14.70
2018-06-12T01:14:12.136Z,14.70
2018-06-12T01:16:41.153Z,14.70
2018-06-12T01:19:09.823Z,14.70
2018-06-12T01:21:38.079Z,14.60
2018-06-12T01:24:06.693Z,14.60
2018-06-12T01:26:34.859Z,14.70
2018-06-12T01:29:03.029Z,14.60
2018-06-12T01:31:32.129Z,14.70
2018-06-12T01:34:00.307Z,14.70
2018-06-12T01:36:29.798Z,14.70
2018-06-12T01:38:58.209Z,14.70
2018-06-12T01:41:26.958Z,14.70
2018-06-12T01:43:55.264Z,14.60
2018-06-12T01:46:23.600Z,14.50
2018-06-12T01:48:52.843Z,14.60
2018-06-12T01:51:21.618Z,14.60
2018-06-12T01:53:50.048Z,14.50
2018-06-12T01:56:18.292Z,14.60
2018-06-12T01:58:47.539Z,14.50
2018-06-12T02:01:16.055Z,14.40
2018-06-12T02:03:44.644Z,14.40
2018-06-12T02:06:13.713Z,14.40
2018-06-12T02:08:42.365Z,14.40
2018-06-12T02:11:11.394Z,14.40
2018-06-12T02:13:39.557Z,14.30
2018-06-12T02:16:08.557Z,14.30
2018-06-12T02:18:37.340Z,14.30
2018-06-12T02:21:05.843Z,14.30
2018-06-12T02:23:34.094Z,14.40
2018-06-12T02:26:02.597Z,14.40
2018-06-12T02:28:31.926Z,14.40
2018-06-12T02:31:00.064Z,14.40
2018-06-12T02:33:28.250Z,14.40
2018-06-12T02:35:56.643Z,14.40
2018-06-12T02:38:24.954Z,14.50
2018-06-12T02:40:53.644Z,14.40
2018-06-12T02:43:22.115Z,14.50
2018-06-12T02:45:50.481Z,14.40
2018-06-12T02:48:19.242Z,14.40
2018-06-12T02:50:48.702Z,14.50
2018-06-12T02:53:18.042Z,14.50
2018-06-12T02:55:47.038Z,14.50
2018-06-12T02:58:15.372Z,14.50
2018-06-12T03:00:44.733Z,14.50
2018-06-12T03:03:13.383Z,14.50
2018-06-12T03:05:42.067Z,14.50
2018-06-12T03:08:10.883Z,14.50
2018-06-12T03:10:40.118Z,14.50
2018-06-12T03:13:08.294Z,14.50
2018-06-12T03:15:36.858Z,14.50
2018-06-12T03:18:06.079Z,14.50
2018-06-12T03:20:43.865Z,14.50
2018-06-12T03:23:12.427Z,14.50
2018-06-12T03:25:41.493Z,14.50
2018-06-12T03:28:09.626Z,14.50
2018-06-12T03:30:37.819Z,14.50
2018-06-12T03:33:06.089Z,14.50
2018-06-12T03:35:36.035Z,14.50
2018-06-12T03:38:04.576Z,14.50
2018-06-12T03:40:32.762Z,14.50
2018-06-12T03:43:01.507Z,14.50
2018-06-12T03:45:29.909Z,14.50
2018-06-12T03:47:58.059Z,14.50
2018-06-12T03:50:26.749Z,14.50
2018-06-12T03:52:56.702Z,14.50
2018-06-12T03:55:25.559Z,14.50
2018-06-12T03:57:54.066Z,14.50
2018-06-12T04:02:52.857Z,14.50
2018-06-12T04:05:22.265Z,14.50
2018-06-12T04:07:51.034Z,14.60
2018-06-12T04:10:19.973Z,14.60
2018-06-12T04:12:48.347Z,14.60
2018-06-12T04:15:17.943Z,14.60
2018-06-12T04:17:46.791Z,14.60
2018-06-12T04:20:14.991Z,14.60
2018-06-12T04:22:43.323Z,14.70
2018-06-12T04:25:11.586Z,14.60
2018-06-12T04:27:39.872Z,14.70
2018-06-12T04:30:08.189Z,14.70
2018-06-12T04:32:37.707Z,14.80
2018-06-12T04:35:05.854Z,14.80
2018-06-12T04:37:34.557Z,14.80
2018-06-12T04:40:02.782Z,14.90
2018-06-12T04:42:31.961Z,14.90
2018-06-12T04:45:00.710Z,14.90
2018-06-12T04:47:29.750Z,14.90
2018-06-12T04:49:58.446Z,15.00
2018-06-12T04:52:27.776Z,14.90
2018-06-12T04:54:56.722Z,14.90
2018-06-12T04:57:25.374Z,14.90
2018-06-12T04:59:53.807Z,14.90
2018-06-12T05:02:22.283Z,14.80
2018-06-12T05:04:51.625Z,14.80
2018-06-12T05:07:20.237Z,14.90
2018-06-12T05:09:49.350Z,15.00
2018-06-12T05:12:17.514Z,15.10
2018-06-12T05:14:45.729Z,15.10
2018-06-12T06:39:12.376Z,15.20
2018-06-12T06:41:40.618Z,15.80
2018-06-12T06:44:08.726Z,15.90
2018-06-12T06:46:37.669Z,15.90
2018-06-12T06:49:06.907Z,16.00
2018-06-12T06:51:35.751Z,16.10
2018-06-12T06:54:03.980Z,16.30
2018-06-12T06:56:33.273Z,16.40
2018-06-12T06:59:01.609Z,16.50
2018-06-12T07:01:31.285Z,16.50
2018-06-12T07:04:00.353Z,16.40
2018-06-12T07:06:29.374Z,16.30
2018-06-12T07:08:58.115Z,16.20
2018-06-12T07:11:26.900Z,16.10
2018-06-12T07:13:55.217Z,16.00
2018-06-12T07:16:24.205Z,16.00
2018-06-12T07:18:52.914Z,16.00
2018-06-12T07:21:24.099Z,16.00
2018-06-12T07:23:52.323Z,15.90
2018-06-12T07:26:20.502Z,16.00
2018-06-12T07:28:48.681Z,16.00
2018-06-12T07:31:18.268Z,16.10
2018-06-12T07:33:46.951Z,16.20
2018-06-12T07:36:15.611Z,16.20
2018-06-12T07:38:43.862Z,16.10
2018-06-12T07:41:12.191Z,16.00
2018-06-12T07:43:40.319Z,16.00
2018-06-12T07:46:08.939Z,16.10
2018-06-12T07:48:37.439Z,16.20
2018-06-12T07:51:06.328Z,16.40
2018-06-12T07:53:35.633Z,16.40
2018-06-12T07:56:04.026Z,16.30
2018-06-12T07:58:34.195Z,16.10
2018-06-12T08:01:03.064Z,16.00
2018-06-12T08:03:32.067Z,15.90
2018-06-12T08:06:02.083Z,16.10
2018-06-12T08:08:32.500Z,16.20
2018-06-12T08:11:01.558Z,16.50
2018-06-12T08:13:30.402Z,16.80
2018-06-12T08:15:59.147Z,16.90
2018-06-12T08:18:27.792Z,17.00
2018-06-12T08:20:56.857Z,17.10
2018-06-12T08:25:52.960Z,17.10
2018-06-12T08:28:22.948Z,17.10
2018-06-12T08:30:52.076Z,17.00
2018-06-12T08:33:20.272Z,17.00
2018-06-12T08:35:48.815Z,16.90
2018-06-12T08:38:17.334Z,16.80
2018-06-12T08:40:45.488Z,16.80
2018-06-12T08:43:14.290Z,16.90
2018-06-12T08:45:42.564Z,16.90
2018-06-12T08:48:11.515Z,16.80
2018-06-12T08:50:40.686Z,16.90
2018-06-12T08:53:09.322Z,17.10
2018-06-12T08:55:38.090Z,17.40
2018-06-12T08:58:06.386Z,17.70
2018-06-12T09:00:34.570Z,17.60
2018-06-12T09:03:03.394Z,17.40
2018-06-12T09:05:32.255Z,17.20
2018-06-12T09:08:00.668Z,17.10
2018-06-12T09:10:28.818Z,16.80
2018-06-12T09:12:57.135Z,16.80
2018-06-12T09:15:25.959Z,16.90
2018-06-12T09:17:54.455Z,17.20
2018-06-12T09:20:22.564Z,17.70
2018-06-12T09:22:50.703Z,17.90
2018-06-12T09:25:19.365Z,18.10
2018-06-12T09:27:48.090Z,18.00
2018-06-12T09:30:17.311Z,18.00
2018-06-12T09:32:45.834Z,18.20
2018-06-12T09:35:15.333Z,18.40
2018-06-12T09:37:44.065Z,18.40
2018-06-12T09:40:12.893Z,18.30
2018-06-12T09:42:41.225Z,18.10
2018-06-12T09:45:09.427Z,18.10
2018-06-12T09:47:37.740Z,17.80
2018-06-12T09:50:06.646Z,17.70
2018-06-12T09:52:35.673Z,17.70
2018-06-12T09:55:04.646Z,17.60
2018-06-12T09:57:33.811Z,17.60
2018-06-12T10:00:02.236Z,17.70
2018-06-12T10:02:30.926Z,17.70
2018-06-12T10:04:59.228Z,17.50
2018-06-12T10:07:27.539Z,17.60
2018-06-12T10:09:56.845Z,17.40
2018-06-12T10:12:25.581Z,17.40
2018-06-12T10:19:51.459Z,17.10
2018-06-12T10:24:59.473Z,17.10
2018-06-12T10:29:56.354Z,17.50
2018-06-12T10:32:25.133Z,17.70
2018-06-12T10:34:53.646Z,18.00
2018-06-12T10:37:22.145Z,18.40
2018-06-12T10:39:51.139Z,18.70
2018-06-12T10:42:19.902Z,19.40
2018-06-12T10:44:48.850Z,19.40
2018-06-12T10:47:17.143Z,19.30
2018-06-12T10:52:13.214Z,18.60
2018-06-12T10:54:41.807Z,18.40
2018-06-12T10:57:11.166Z,18.40
2018-06-12T10:59:40.027Z,18.60
2018-06-12T11:02:08.334Z,18.90
2018-06-12T11:04:38.154Z,19.20
2018-06-12T11:07:06.673Z,19.50
2018-06-12T11:09:35.614Z,19.20
2018-06-12T11:12:04.425Z,18.90
2018-06-12T11:14:33.336Z,18.30
2018-06-12T11:17:03.218Z,18.20
2018-06-12T11:19:31.960Z,18.00
2018-06-12T11:22:00.910Z,17.80
2018-06-12T11:24:29.093Z,18.00
2018-06-12T11:26:57.364Z,18.20
2018-06-12T11:34:23.523Z,19.10
2018-06-12T11:36:53.059Z,19.30
2018-06-12T11:39:22.076Z,19.50
2018-06-12T11:41:50.253Z,19.40
2018-06-12T11:44:19.202Z,19.40
2018-06-12T11:46:48.246Z,19.20
2018-06-12T11:49:16.560Z,18.60
2018-06-12T11:51:45.038Z,18.20
2018-06-12T11:54:13.994Z,18.10
2018-06-12T11:56:42.988Z,18.40
2018-06-12T11:59:11.780Z,18.50
2018-06-12T12:01:40.493Z,18.90
2018-06-12T12:06:36.903Z,20.20
2018-06-12T12:09:07.706Z,20.30
2018-06-12T12:11:37.294Z,20.30
2018-06-12T12:16:33.511Z,20.70
2018-06-12T12:19:02.740Z,21.00
2018-06-12T12:21:31.535Z,21.10
2018-06-12T12:23:59.666Z,20.50
2018-06-12T12:26:27.894Z,20.30
2018-06-12T12:31:25.118Z,19.40
2018-06-12T12:33:53.765Z,18.90
2018-06-12T12:36:22.694Z,18.50
2018-06-12T12:38:52.075Z,18.20
2018-06-12T12:41:20.329Z,18.30
2018-06-12T12:43:50.218Z,18.10
2018-06-12T12:48:46.846Z,18.30
2018-06-12T12:51:15.065Z,18.50
2018-06-12T12:53:43.788Z,18.60
2018-06-12T12:56:12.805Z,19.30
2018-06-12T12:58:41.085Z,19.40
2018-06-12T13:01:09.434Z,19.50
2018-06-12T13:03:37.825Z,19.80
2018-06-12T13:06:06.230Z,20.10
2018-06-12T13:08:34.927Z,20.30
2018-06-12T13:11:04.390Z,19.70
2018-06-12T13:13:32.994Z,19.30
2018-06-12T13:16:01.242Z,18.90
2018-06-12T13:18:29.606Z,18.90
2018-06-12T13:20:58.208Z,19.10
2018-06-12T13:23:26.777Z,19.30
2018-06-12T13:25:55.619Z,19.00
2018-06-12T13:28:23.748Z,18.90
2018-06-12T13:30:52.626Z,18.50
2018-06-12T13:33:20.931Z,18.40
2018-06-12T13:35:49.010Z,18.70
2018-06-12T13:38:18.489Z,18.60
2018-06-12T13:40:46.815Z,18.50
2018-06-12T13:43:15.682Z,18.40
2018-06-12T13:45:44.315Z,18.40
2018-06-12T13:48:12.869Z,18.20
2018-06-12T13:50:42.262Z,18.10
2018-06-12T13:53:12.748Z,17.70
2018-06-12T13:55:40.922Z,17.40
2018-06-12T14:00:42.423Z,17.70
2018-06-12T14:03:10.873Z,17.80
2018-06-12T14:05:39.653Z,17.90
2018-06-12T14:08:08.326Z,18.00
2018-06-12T14:10:36.931Z,18.10
2018-06-12T14:13:05.114Z,18.10
2018-06-12T14:18:01.423Z,17.70
2018-06-12T14:20:29.838Z,17.70
2018-06-12T14:23:00.209Z,17.80
2018-06-12T14:25:29.472Z,17.80
2018-06-12T14:27:58.163Z,18.00
2018-06-12T14:30:27.085Z,17.90
2018-06-12T14:32:55.417Z,18.00
2018-06-12T14:37:53.414Z,18.60
2018-06-12T14:40:21.667Z,18.80
2018-06-12T14:42:50.349Z,18.80
2018-06-12T14:45:19.298Z,19.00
2018-06-12T14:47:48.310Z,19.10
2018-06-12T14:50:16.543Z,18.80
2018-06-12T14:52:45.442Z,18.50
2018-06-12T14:55:16.400Z,18.40
2018-06-12T14:57:45.098Z,18.30
2018-06-12T15:00:14.421Z,18.20
2018-06-12T15:02:42.722Z,17.80
2018-06-12T15:07:38.884Z,17.80
2018-06-12T15:10:07.170Z,18.00
2018-06-12T15:12:36.727Z,17.70
2018-06-12T15:15:05.269Z,17.60
2018-06-12T15:17:34.141Z,17.50
2018-06-12T15:20:02.927Z,17.40
2018-06-12T15:25:00.709Z,17.30
2018-06-12T15:27:28.992Z,17.20
2018-06-12T15:29:58.562Z,17.20
2018-06-12T15:32:26.835Z,17.60
2018-06-12T15:34:56.310Z,17.80
2018-06-12T15:37:24.981Z,17.90
2018-06-12T15:39:53.489Z,17.80
2018-06-12T15:42:22.770Z,17.70
2018-06-12T15:44:51.591Z,17.70
2018-06-12T15:47:19.931Z,17.80
2018-06-12T15:49:49.093Z,17.70
2018-06-12T15:52:18.317Z,17.90
2018-06-12T15:54:46.605Z,17.80
2018-06-12T15:57:15.538Z,17.70
2018-06-12T15:59:44.504Z,17.40
2018-06-12T16:02:12.722Z,17.30
2018-06-12T16:04:41.184Z,17.30
2018-06-12T16:07:09.556Z,17.20
2018-06-12T16:09:37.714Z,17.20
2018-06-12T16:12:06.630Z,17.00
2018-06-12T16:14:35.391Z,16.90
2018-06-12T16:17:04.189Z,16.90
2018-06-12T16:19:32.618Z,16.90
2018-06-12T16:22:00.983Z,17.20
2018-06-12T16:24:30.258Z,17.20
2018-06-12T16:26:59.230Z,17.10
2018-06-12T16:29:28.133Z,17.10
2018-06-12T16:31:56.505Z,17.20
2018-06-12T16:34:25.333Z,17.10
2018-06-12T16:36:54.155Z,17.10
2018-06-12T16:40:51.561Z,17.10
2018-06-12T16:43:20.062Z,17.00
2018-06-12T16:45:48.413Z,16.80
2018-06-12T16:48:16.626Z,16.70
2018-06-12T16:50:45.461Z,16.70
2018-06-12T16:53:13.753Z,16.50
2018-06-12T16:55:42.046Z,16.40
2018-06-12T16:58:10.218Z,16.20
2018-06-12T17:00:38.355Z,16.20
2018-06-12T17:05:35.282Z,16.20
2018-06-12T17:08:05.523Z,16.30
2018-06-12T17:10:34.622Z,16.20
2018-06-12T17:13:03.814Z,16.20
2018-06-12T17:15:32.462Z,16.30
2018-06-12T17:18:01.338Z,16.30
2018-06-12T17:20:30.573Z,16.40
2018-06-12T17:22:59.528Z,16.40
2018-06-12T17:25:27.946Z,16.60
2018-06-12T17:27:56.624Z,16.50
2018-06-12T17:30:25.073Z,16.50
2018-06-12T17:32:53.282Z,16.30
2018-06-12T17:35:21.471Z,16.30
2018-06-12T17:40:20.220Z,16.20
2018-06-12T17:42:49.246Z,16.20
2018-06-12T17:45:17.569Z,16.20
2018-06-12T17:47:46.955Z,16.10
2018-06-12T17:50:16.279Z,15.90
2018-06-12T17:52:44.382Z,15.80
2018-06-12T17:55:13.267Z,15.80
2018-06-12T17:57:41.341Z,15.80
2018-06-12T18:00:09.632Z,15.80
2018-06-12T18:02:38.001Z,15.80
2018-06-12T18:05:06.457Z,15.80
2018-06-12T18:10:04.070Z,15.90
2018-06-12T18:12:32.466Z,16.00
2018-06-12T18:15:01.292Z,15.90
2018-06-12T18:17:30.258Z,15.90
2018-06-12T18:20:01.499Z,15.90
2018-06-12T18:22:30.560Z,15.90
2018-06-12T18:24:59.789Z,15.90
2018-06-12T18:27:28.594Z,15.90
2018-06-12T18:29:56.718Z,15.90
2018-06-12T18:32:26.286Z,15.80
2018-06-12T18:34:54.528Z,15.90
2018-06-12T18:37:23.582Z,15.90
2018-06-12T18:39:52.638Z,15.90
2018-06-12T18:42:23.636Z,15.90
2018-06-12T18:44:52.066Z,15.90
2018-06-12T18:47:21.050Z,15.90
2018-06-12T18:49:49.593Z,16.00
2018-06-12T18:52:18.030Z,16.00
2018-06-12T18:54:47.617Z,15.90
2018-06-12T18:57:15.790Z,15.80
2018-06-12T18:59:44.790Z,15.70
2018-06-12T19:02:13.006Z,15.70
2018-06-12T19:04:42.119Z,15.70
2018-06-12T19:07:10.842Z,15.70
2018-06-12T19:09:39.907Z,15.60
2018-06-12T19:12:08.675Z,15.70
2018-06-12T19:17:05.201Z,15.60
2018-06-12T19:19:34.762Z,15.60
2018-06-12T19:22:02.976Z,15.60
2018-06-12T19:24:31.565Z,15.60
2018-06-12T19:27:00.201Z,15.50
2018-06-12T19:29:29.474Z,15.40
2018-06-12T19:34:25.701Z,15.40
2018-06-12T19:36:54.194Z,15.30
2018-06-12T19:39:23.050Z,15.30
2018-06-12T19:41:52.477Z,15.20
2018-06-12T19:44:21.026Z,15.20
2018-06-12T19:46:49.222Z,15.30
2018-06-12T19:49:18.105Z,15.20
2018-06-12T19:51:47.118Z,15.20
2018-06-12T19:54:15.867Z,15.20
2018-06-12T19:56:43.950Z,15.20
2018-06-12T19:59:13.049Z,15.20
2018-06-12T20:01:42.047Z,15.10
2018-06-12T20:04:10.933Z,15.10
2018-06-12T20:06:39.438Z,15.10
2018-06-12T20:09:08.493Z,15.10
2018-06-12T20:11:37.565Z,15.10
2018-06-12T20:14:06.265Z,15.10
2018-06-12T20:16:34.958Z,15.10
2018-06-12T20:19:03.174Z,15.10
2018-06-12T20:21:31.684Z,15.00
2018-06-12T20:23:59.999Z,15.00
2018-06-12T20:26:28.246Z,15.00
2018-06-12T20:28:56.339Z,15.10
2018-06-12T20:31:24.938Z,15.00
2018-06-12T20:33:53.582Z,15.00
2018-06-12T20:36:22.082Z,15.00
2018-06-12T20:38:50.576Z,15.00
2018-06-12T20:41:19.594Z,14.90
2018-06-12T20:43:48.214Z,14.90
2018-06-12T20:48:44.734Z,14.90
2018-06-12T20:51:13.273Z,14.80
2018-06-12T20:53:41.612Z,14.80
2018-06-12T20:56:10.057Z,14.70
2018-06-12T20:58:38.452Z,14.70
2018-06-12T21:01:07.864Z,14.70
2018-06-12T21:03:36.906Z,14.70
2018-06-12T21:06:05.205Z,14.70
2018-06-12T21:08:34.175Z,14.70
2018-06-12T21:11:02.437Z,14.70
2018-06-12T21:15:59.897Z,14.60
2018-06-12T21:18:28.519Z,14.40
2018-06-12T21:20:57.457Z,14.40
2018-06-12T21:23:26.638Z,14.40
2018-06-12T21:25:54.818Z,14.30
2018-06-12T21:28:24.841Z,14.40
2018-06-12T21:30:52.957Z,14.40
2018-06-12T21:33:21.269Z,14.40
2018-06-12T21:35:49.894Z,14.40
2018-06-12T21:38:18.706Z,14.30
2018-06-12T21:40:47.566Z,14.30
2018-06-12T21:43:16.045Z,14.30
2018-06-12T21:45:44.797Z,14.30
2018-06-12T21:48:13.554Z,14.30
2018-06-12T21:50:42.181Z,14.30
2018-06-12T21:53:10.947Z,14.30
2018-06-12T21:55:40.000Z,14.30
2018-06-12T21:58:08.583Z,14.30
2018-06-12T22:00:37.674Z,14.30
2018-06-12T22:03:06.123Z,14.20
2018-06-12T22:05:35.629Z,14.20
2018-06-12T22:08:03.985Z,14.30
2018-06-12T22:10:32.817Z,14.40
2018-06-12T22:13:01.555Z,14.40
2018-06-12T22:15:30.486Z,14.40
2018-06-12T22:17:58.670Z,14.30
2018-06-12T22:20:27.739Z,14.30
2018-06-12T22:22:56.022Z,14.30
2018-06-12T22:25:24.293Z,14.20
2018-06-12T22:27:53.283Z,14.20
2018-06-12T22:30:22.141Z,14.10
2018-06-12T22:35:19.007Z,14.10
2018-06-12T22:37:47.273Z,14.00
2018-06-12T22:40:15.397Z,14.00
2018-06-12T22:42:44.632Z,13.90
2018-06-12T22:45:13.378Z,13.70
2018-06-12T22:47:41.798Z,13.70
2018-06-12T22:50:09.955Z,13.70
2018-06-12T22:52:38.652Z,13.60
2018-06-12T22:55:06.754Z,13.60
2018-06-12T22:57:34.878Z,13.60
2018-06-12T23:00:03.658Z,13.70
2018-06-12T23:02:32.442Z,13.80
2018-06-12T23:05:00.729Z,13.80
2018-06-12T23:07:29.715Z,13.70
2018-06-12T23:09:57.960Z,13.80
2018-06-12T23:14:54.954Z,13.70
2018-06-12T23:17:23.234Z,13.70
2018-06-12T23:20:02.858Z,13.70
2018-06-12T23:22:31.186Z,13.70
2018-06-12T23:24:59.848Z,13.70
2018-06-12T23:27:28.828Z,13.70
2018-06-12T23:29:59.166Z,13.70
2018-06-12T23:32:27.487Z,13.70
2018-06-12T23:37:25.024Z,13.70
2018-06-12T23:39:53.728Z,13.80
2018-06-12T23:42:22.690Z,13.80
2018-06-12T23:44:50.966Z,13.80
2018-06-12T23:47:19.274Z,13.80
2018-06-12T23:49:47.601Z,13.70
2018-06-12T23:52:15.851Z,13.60
2018-06-12T23:54:44.870Z,13.60
2018-06-12T23:57:13.498Z,13.50
2018-06-12T23:59:42.369Z,13.60
